| time (UTC) | temp C | wind direction | speed KPH | gust KPH | rain 1hr cm | rain 24hr cm | rain mn cm | humidity % | barometer mb |
| 20260906052018 | 22 | 310 | 12.9 | 22.5 | 0.00 | 0.00 | 0.00 | 45 | 1017.6 |
| 20260906051019 | 22 | 5 | 11.3 | 19.3 | 0.00 | 0.00 | 0.00 | 45 | 1017.5 |
| 20260906050019 | 22 | 327 | 9.7 | 19.3 | 0.00 | 0.00 | 0.00 | 45 | 1017.4 |
| 20260906045019 | 22 | 347 | 11.3 | 19.3 | 0.00 | 0.00 | 0.00 | 45 | 1017.4 |
| 20260906044019 | 22 | 318 | 11.3 | 19.3 | 0.00 | 0.00 | 0.00 | 46 | 1017.2 |
| 20260906043019 | 21 | 323 | 12.9 | 20.9 | 0.00 | 0.00 | 0.00 | 47 | 1017.1 |
| 20260906042019 | 21 | 346 | 9.7 | 17.7 | 0.00 | 0.00 | 0.00 | 47 | 1017.0 |
| 20260906041019 | 21 | 328 | 9.7 | 19.3 | 0.00 | 0.00 | 0.00 | 47 | 1017.0 |
| 20260906040019 | 21 | 317 | 9.7 | 17.7 | 0.00 | 0.00 | 0.00 | 47 | 1016.8 |
| 20260906035019 | 22 | 259 | 12.9 | 20.9 | 0.00 | 0.00 | 0.00 | 46 | 1016.9 |
| 20260906034019 | 22 | 245 | 12.9 | 20.9 | 0.00 | 0.00 | 0.00 | 45 | 1016.8 |
| 20260906033019 | 22 | 339 | 14.5 | 20.9 | 0.00 | 0.00 | 0.00 | 44 | 1016.8 |
| 20260906032019 | 22 | 334 | 14.5 | 20.9 | 0.00 | 0.00 | 0.00 | 44 | 1016.7 |
| 20260906031019 | 22 | 326 | 9.7 | 19.3 | 0.00 | 0.00 | 0.00 | 43 | 1016.6 |
| 20260906030019 | 22 | 254 | 11.3 | 19.3 | 0.00 | 0.00 | 0.00 | 44 | 1016.6 |
| 20260906025019 | 22 | 250 | 12.9 | 19.3 | 0.00 | 0.00 | 0.00 | 43 | 1016.5 |
| 20260906024019 | 22 | 274 | 11.3 | 19.3 | 0.00 | 0.00 | 0.00 | 45 | 1016.4 |
| 20260906023019 | 22 | 311 | 9.7 | 17.7 | 0.00 | 0.00 | 0.00 | 44 | 1016.3 |
| 20260906022019 | 22 | 300 | 9.7 | 17.7 | 0.00 | 0.00 | 0.00 | 44 | 1016.3 |
| 20260906021019 | 22 | 337 | 9.7 | 16.1 | 0.00 | 0.00 | 0.00 | 45 | 1016.3 |
| 20260906020018 | 22 | 338 | 9.7 | 16.1 | 0.00 | 0.00 | 0.00 | 44 | 1016.3 |
| 20260906015019 | 22 | 322 | 8.0 | 16.1 | 0.00 | 0.00 | 0.00 | 44 | 1016.3 |
| 20260906014019 | 22 | 287 | 4.8 | 14.5 | 0.00 | 0.00 | 0.00 | 44 | 1016.3 |
| 20260906013019 | 22 | 328 | 8.0 | 12.9 | 0.00 | 0.00 | 0.00 | 44 | 1016.3 |
| 20260906012019 | 22 | 355 | 8.0 | 14.5 | 0.00 | 0.00 | 0.00 | 44 | 1016.3 |
| 20260906011019 | 22 | 322 | 8.0 | 16.1 | 0.00 | 0.00 | 0.00 | 44 | 1016.3 |
| 20260906010019 | 22 | 346 | 9.7 | 17.7 | 0.00 | 0.00 | 0.00 | 44 | 1016.2 |
| 20260906005019 | 22 | 336 | 11.3 | 19.3 | 0.00 | 0.00 | 0.00 | 44 | 1016.2 |
| 20260906004019 | 22 | 340 | 12.9 | 20.9 | 0.00 | 0.00 | 0.00 | 44 | 1016.2 |
| 20260906003018 | 22 | 346 | 11.3 | 20.9 | 0.00 | 0.00 | 0.00 | 44 | 1016.2 |
| 20260906002019 | 22 | 316 | 8.0 | 14.5 | 0.00 | 0.00 | 0.00 | 44 | 1016.3 |
| 20260906001019 | 22 | 328 | 8.0 | 14.5 | 0.00 | 0.00 | 0.00 | 44 | 1016.4 |
| 20260906000018 | 22 | 309 | 6.4 | 16.1 | 0.00 | 0.00 | 0.00 | 44 | 1016.3 |
| 20260905235019 | 22 | 325 | 11.3 | 19.3 | 0.00 | 0.00 | 0.00 | 44 | 1016.4 |
| 20260905234018 | 22 | 344 | 11.3 | 19.3 | 0.00 | 0.00 | 0.00 | 44 | 1016.4 |
| 20260905233019 | 22 | 327 | 9.7 | 19.3 | 0.00 | 0.00 | 0.00 | 44 | 1016.3 |
| 20260905232018 | 22 | 334 | 9.7 | 19.3 | 0.00 | 0.00 | 0.00 | 44 | 1016.3 |
| 20260905231019 | 22 | 337 | 9.7 | 16.1 | 0.00 | 0.00 | 0.00 | 43 | 1016.3 |
| 20260905230019 | 22 | 330 | 11.3 | 17.7 | 0.00 | 0.00 | 0.00 | 44 | 1016.4 |
| 20260905225019 | 22 | 327 | 11.3 | 17.7 | 0.00 | 0.00 | 0.00 | 45 | 1016.4 |
| 20260905224018 | 22 | 332 | 11.3 | 19.3 | 0.00 | 0.00 | 0.00 | 44 | 1016.3 |
| 20260905223019 | 22 | 326 | 11.3 | 19.3 | 0.00 | 0.00 | 0.00 | 44 | 1016.4 |
| 20260905222019 | 22 | 335 | 12.9 | 22.5 | 0.00 | 0.00 | 0.00 | 44 | 1016.4 |
| 20260905221018 | 23 | 323 | 14.5 | 20.9 | 0.00 | 0.00 | 0.00 | 43 | 1016.4 |
| 20260905220018 | 23 | 327 | 11.3 | 17.7 | 0.00 | 0.00 | 0.00 | 43 | 1016.4 |
| 20260905215019 | 22 | 346 | 14.5 | 20.9 | 0.00 | 0.00 | 0.00 | 44 | 1016.5 |
| 20260905214019 | 23 | 349 | 14.5 | 20.9 | 0.00 | 0.00 | 0.00 | 44 | 1016.6 |
| 20260905213018 | 22 | 335 | 11.3 | 19.3 | 0.00 | 0.00 | 0.00 | 44 | 1016.6 |
| 20260905212018 | 22 | 336 | 11.3 | 19.3 | 0.00 | 0.00 | 0.00 | 45 | 1016.5 |
| 20260905211018 | 22 | 315 | 9.7 | 16.1 | 0.00 | 0.00 | 0.00 | 44 | 1016.5 |
| 20260905210018 | 22 | 335 | 11.3 | 16.1 | 0.00 | 0.00 | 0.00 | 43 | 1016.6 |
| 20260905205019 | 23 | 341 | 11.3 | 17.7 | 0.00 | 0.00 | 0.00 | 43 | 1016.6 |
| 20260905204018 | 23 | 331 | 9.7 | 14.5 | 0.00 | 0.00 | 0.00 | 43 | 1016.5 |
| 20260905203019 | 23 | 337 | 9.7 | 17.7 | 0.00 | 0.00 | 0.00 | 42 | 1016.6 |
| 20260905202019 | 23 | 321 | 9.7 | 16.1 | 0.00 | 0.00 | 0.00 | 42 | 1016.6 |
| 20260905201019 | 23 | 347 | 11.3 | 16.1 | 0.00 | 0.00 | 0.00 | 42 | 1016.6 |
| 20260905200019 | 23 | 338 | 9.7 | 16.1 | 0.00 | 0.00 | 0.00 | 41 | 1016.6 |
| 20260905195019 | 23 | 339 | 9.7 | 19.3 | 0.00 | 0.00 | 0.00 | 40 | 1016.6 |
| 20260905194019 | 23 | 329 | 9.7 | 16.1 | 0.00 | 0.00 | 0.00 | 40 | 1016.7 |
| 20260905193019 | 23 | 340 | 9.7 | 16.1 | 0.00 | 0.00 | 0.00 | 39 | 1016.6 |
| 20260905192018 | 23 | 337 | 9.7 | 14.5 | 0.00 | 0.00 | 0.00 | 39 | 1016.6 |
| 20260905191018 | 24 | 350 | 9.7 | 14.5 | 0.00 | 0.00 | 0.00 | 37 | 1016.6 |
| 20260905190018 | 24 | 339 | 9.7 | 17.7 | 0.00 | 0.00 | 0.00 | 37 | 1016.5 |
| 20260905185018 | 24 | 354 | 9.7 | 17.7 | 0.00 | 0.00 | 0.00 | 36 | 1016.5 |
| 20260905184019 | 25 | 309 | 8.0 | 11.3 | 0.00 | 0.00 | 0.00 | 35 | 1016.4 |
| 20260905183019 | 25 | 329 | 8.0 | 12.9 | 0.00 | 0.00 | 0.00 | 34 | 1016.4 |
| 20260905182019 | 26 | 330 | 8.0 | 12.9 | 0.00 | 0.00 | 0.00 | 33 | 1016.4 |
| 20260905181019 | 26 | 340 | 8.0 | 14.5 | 0.00 | 0.00 | 0.00 | 32 | 1016.2 |
| 20260905180019 | 26 | 313 | 6.4 | 11.3 | 0.00 | 0.00 | 0.00 | 31 | 1016.1 |
| 20260905175019 | 27 | 312 | 4.8 | 8.0 | 0.00 | 0.00 | 0.00 | 30 | 1016.0 |
| 20260905174019 | 28 | 322 | 4.8 | 11.3 | 0.00 | 0.00 | 0.00 | 28 | 1016.0 |
| 20260905173019 | 29 | 338 | 3.2 | 6.4 | 0.00 | 0.00 | 0.00 | 27 | 1015.8 |
| 20260905172019 | 29 | 297 | 1.6 | 4.8 | 0.00 | 0.00 | 0.00 | 26 | 1015.9 |
| 20260905171019 | 30 | 225 | 0.0 | 1.6 | 0.00 | 0.00 | 0.00 | 26 | 1015.8 |
| 20260905170019 | 30 | 205 | 1.6 | 3.2 | 0.00 | 0.00 | 0.00 | 25 | 1015.8 |
| 20260905165018 | 30 | 228 | 0.0 | 1.6 | 0.00 | 0.00 | 0.00 | 25 | 1015.7 |
| 20260905164019 | 31 | 203 | 0.0 | 1.6 | 0.00 | 0.00 | 0.00 | 24 | 1015.6 |
| 20260905163019 | 32 | 198 | 0.0 | 1.6 | 0.00 | 0.00 | 0.00 | 23 | 1015.5 |
| 20260905162018 | 35 | 267 | 1.6 | 1.6 | 0.00 | 0.00 | 0.00 | 22 | 1015.4 |
| 20260905161019 | 36 | 250 | 0.0 | 3.2 | 0.00 | 0.00 | 0.00 | 20 | 1015.4 |
| 20260905160019 | 36 | 222 | 1.6 | 4.8 | 0.00 | 0.00 | 0.00 | 20 | 1015.5 |
| 20260905155019 | 37 | 269 | 0.0 | 1.6 | 0.00 | 0.00 | 0.00 | 20 | 1015.4 |
| 20260905154019 | 37 | 252 | 0.0 | 3.2 | 0.00 | 0.00 | 0.00 | 19 | 1015.5 |
| 20260905153019 | 37 | 241 | 0.0 | 1.6 | 0.00 | 0.00 | 0.00 | 19 | 1015.5 |
| 20260905152019 | 38 | 250 | 1.6 | 3.2 | 0.00 | 0.00 | 0.00 | 19 | 1015.5 |
| 20260905151019 | 37 | 228 | 1.6 | 3.2 | 0.00 | 0.00 | 0.00 | 19 | 1015.5 |
| 20260905150019 | 37 | 255 | 1.6 | 3.2 | 0.00 | 0.00 | 0.00 | 20 | 1015.5 |
| 20260905145019 | 37 | 170 | 1.6 | 3.2 | 0.00 | 0.00 | 0.00 | 20 | 1015.5 |
| 20260905144019 | 37 | 240 | 1.6 | 4.8 | 0.00 | 0.00 | 0.00 | 20 | 1015.5 |
| 20260905143019 | 37 | 220 | 1.6 | 6.4 | 0.00 | 0.00 | 0.00 | 21 | 1015.6 |
| 20260905142019 | 37 | 221 | 1.6 | 3.2 | 0.00 | 0.00 | 0.00 | 21 | 1015.6 |
| 20260905141019 | 37 | 220 | 3.2 | 4.8 | 0.00 | 0.00 | 0.00 | 22 | 1015.7 |
| 20260905140019 | 37 | 207 | 1.6 | 4.8 | 0.00 | 0.00 | 0.00 | 22 | 1015.7 |
| 20260905135019 | 37 | 198 | 1.6 | 4.8 | 0.00 | 0.00 | 0.00 | 23 | 1015.8 |
| 20260905134019 | 37 | 232 | 1.6 | 6.4 | 0.00 | 0.00 | 0.00 | 23 | 1015.9 |
| 20260905133019 | 36 | 228 | 1.6 | 11.3 | 0.00 | 0.00 | 0.00 | 24 | 1016.0 |
| 20260905132019 | 36 | 236 | 1.6 | 3.2 | 0.00 | 0.00 | 0.00 | 24 | 1016.2 |
| 20260905131019 | 36 | 226 | 3.2 | 6.4 | 0.00 | 0.00 | 0.00 | 25 | 1016.2 |
| 20260905130019 | 36 | 238 | 1.6 | 3.2 | 0.00 | 0.00 | 0.00 | 25 | 1016.4 |
| 20260905125019 | 36 | 243 | 3.2 | 4.8 | 0.00 | 0.00 | 0.00 | 26 | 1016.4 |
| 20260905124019 | 36 | 227 | 3.2 | 6.4 | 0.00 | 0.00 | 0.00 | 26 | 1016.5 |
| 20260905123019 | 36 | 200 | 3.2 | 8.0 | 0.00 | 0.00 | 0.00 | 27 | 1016.6 |
| 20260905122019 | 35 | 203 | 3.2 | 6.4 | 0.00 | 0.00 | 0.00 | 28 | 1016.6 |
| 20260905121019 | 35 | 266 | 3.2 | 4.8 | 0.00 | 0.00 | 0.00 | 28 | 1016.8 |
| 20260905120019 | 35 | 253 | 1.6 | 4.8 | 0.00 | 0.00 | 0.00 | 29 | 1017.0 |
| 20260905115019 | 35 | 248 | 3.2 | 4.8 | 0.00 | 0.00 | 0.00 | 29 | 1017.1 |
| 20260905114019 | 35 | 209 | 3.2 | 8.0 | 0.00 | 0.00 | 0.00 | 30 | 1017.2 |
| 20260905113019 | 34 | 254 | 1.6 | 4.8 | 0.00 | 0.00 | 0.00 | 31 | 1017.3 |
| 20260905112019 | 33 | 309 | 3.2 | 4.8 | 0.00 | 0.00 | 0.00 | 31 | 1017.4 |
| 20260905111019 | 33 | 337 | 3.2 | 6.4 | 0.00 | 0.00 | 0.00 | 31 | 1017.4 |
| 20260905110019 | 33 | 268 | 3.2 | 6.4 | 0.00 | 0.00 | 0.00 | 31 | 1017.5 |
| 20260905105019 | 33 | 241 | 3.2 | 6.4 | 0.00 | 0.00 | 0.00 | 30 | 1017.6 |
| 20260905104019 | 33 | 217 | 3.2 | 6.4 | 0.00 | 0.00 | 0.00 | 30 | 1017.6 |
| 20260905103018 | 33 | 300 | 3.2 | 6.4 | 0.00 | 0.00 | 0.00 | 30 | 1017.7 |
| 20260905102019 | 33 | 226 | 3.2 | 8.0 | 0.00 | 0.00 | 0.00 | 30 | 1017.8 |
| 20260905101019 | 33 | 266 | 3.2 | 4.8 | 0.00 | 0.00 | 0.00 | 30 | 1018.0 |
| 20260905100019 | 32 | 241 | 3.2 | 6.4 | 0.00 | 0.00 | 0.00 | 29 | 1018.1 |
| 20260905095018 | 32 | 251 | 1.6 | 4.8 | 0.00 | 0.00 | 0.00 | 30 | 1018.3 |
| 20260905094019 | 31 | 206 | 3.2 | 8.0 | 0.00 | 0.00 | 0.00 | 31 | 1018.4 |
| 20260905093019 | 31 | 4 | 3.2 | 6.4 | 0.00 | 0.00 | 0.00 | 32 | 1018.5 |
| 20260905092018 | 30 | 225 | 3.2 | 6.4 | 0.00 | 0.00 | 0.00 | 33 | 1018.5 |
| 20260905091019 | 30 | 254 | 1.6 | 4.8 | 0.00 | 0.00 | 0.00 | 33 | 1018.6 |
| 20260905090019 | 30 | 257 | 1.6 | 4.8 | 0.00 | 0.00 | 0.00 | 34 | 1018.6 |
| 20260905085018 | 29 | 213 | 3.2 | 8.0 | 0.00 | 0.00 | 0.00 | 34 | 1018.7 |
| 20260905084018 | 29 | 240 | 1.6 | 6.4 | 0.00 | 0.00 | 0.00 | 35 | 1018.8 |
| 20260905083019 | 28 | 217 | 1.6 | 4.8 | 0.00 | 0.00 | 0.00 | 36 | 1018.8 |
| 20260905082018 | 28 | 197 | 1.6 | 4.8 | 0.00 | 0.00 | 0.00 | 37 | 1018.8 |
| 20260905081019 | 27 | 218 | 3.2 | 6.4 | 0.00 | 0.00 | 0.00 | 38 | 1018.8 |
| 20260905080019 | 27 | 252 | 1.6 | 4.8 | 0.00 | 0.00 | 0.00 | 38 | 1018.8 |
| 20260905075018 | 27 | 226 | 1.6 | 3.2 | 0.00 | 0.00 | 0.00 | 38 | 1018.9 |
| 20260905074019 | 27 | 222 | 1.6 | 4.8 | 0.00 | 0.00 | 0.00 | 39 | 1018.9 |
| 20260905073018 | 26 | 203 | 3.2 | 4.8 | 0.00 | 0.00 | 0.00 | 40 | 1018.9 |
| 20260905072019 | 26 | 210 | 1.6 | 4.8 | 0.00 | 0.00 | 0.00 | 41 | 1018.8 |
| 20260905071019 | 25 | 238 | 0.0 | 1.6 | 0.00 | 0.00 | 0.00 | 42 | 1018.8 |
| 20260905070019 | 25 | 219 | 1.6 | 3.2 | 0.00 | 0.00 | 0.00 | 43 | 1018.8 |
| 20260905065019 | 24 | 217 | 0.0 | 1.6 | 0.00 | 0.00 | 0.00 | 44 | 1018.7 |
| 20260905064019 | 23 | 354 | 3.2 | 6.4 | 0.00 | 0.00 | 0.00 | 44 | 1018.7 |
| 20260905063019 | 23 | 321 | 3.2 | 9.7 | 0.00 | 0.00 | 0.00 | 44 | 1018.8 |
| 20260905062018 | 23 | 346 | 6.4 | 9.7 | 0.00 | 0.00 | 0.00 | 45 | 1018.9 |
| 20260905061018 | 22 | 332 | 4.8 | 8.0 | 0.00 | 0.00 | 0.00 | 45 | 1018.9 |
| 20260905060019 | 22 | 312 | 6.4 | 11.3 | 0.00 | 0.00 | 0.00 | 46 | 1019.0 |
| 20260905055018 | 21 | 321 | 6.4 | 12.9 | 0.00 | 0.00 | 0.00 | 47 | 1018.9 |
| 20260905054018 | 21 | 322 | 6.4 | 11.3 | 0.00 | 0.00 | 0.00 | 47 | 1018.9 |
| 20260905053019 | 21 | 317 | 6.4 | 12.9 | 0.00 | 0.00 | 0.00 | 48 | 1018.8 |